Weather at Guiglo Airport

Public forecast

Using degrees Celsius for public forecast. Weather courtesy of forecast.io.

Closest aviation weather report (METAR) to Guiglo Airport

Report is more than 6 hours old.

Closest report is Nzérékoré Airport, 103.8 nm (192.2 km) NW.

2023/02/08 15:00 (retrieved 21 hours ago)

GUNZ 081500Z 22006KT 9999 SCT015 30/21 Q1009 NOSIG

Closest aviation forecast (TAF) to Guiglo Airport

Closest forecast is Yamoussoukro Airport, 130.8 nm (242.2 km) E.

2023/02/09 12:50 (retrieved 0 seconds ago)

TAF DIYO 091150Z 0912/1012 22007KT 9999 SCT013 PROB40 TEMPO 0916/0921 TS BKN012 FEW020CB